Time;durP1;ratioP1;P1;durP2;ratioP2;P2;SDS_P1;SDS_P2;PMS_P1;PMS_P2;Temp;Humidity;BMP_temperature;BMP_pressure;BME280_temperature;BME280_humidity;BME280_pressure;Samples;Min_cycle;Max_cycle;Signal;HPM_P1;HPM_P2
2022/05/29 00:00:37;;;;;;;;;;;;;;;22.72;78.17;96534.64;611553;232;65100;-72
2022/05/29 00:03:04;;;;;;;;;;;;;;;22.73;78.19;96541.61;611543;232;69335;-72
2022/05/29 00:05:31;;;;;;;;;;;;;;;22.73;78.12;96546.17;611562;232;68429;-72
2022/05/29 00:08:01;;;;;;;;;;;;;;;22.73;78.17;96557.68;611468;232;65134;-72
2022/05/29 00:10:28;;;;;;;;;;;;;;;22.72;78.14;96556.07;611011;232;68277;-72
2022/05/29 00:12:56;;;;;;;;;;;;;;;22.72;78.19;96550.71;610514;232;66300;-72
2022/05/29 00:15:23;;;;;;;;;;;;;;;22.73;78.22;96540.82;610831;232;64954;-72
2022/05/29 00:17:51;;;;;;;;;;;;;;;22.73;78.31;96533.57;610901;232;68683;-72
2022/05/29 00:20:18;;;;;;;;;;;;;;;22.72;78.36;96531.17;610858;232;66258;-72
2022/05/29 00:22:46;;;;;;;;;;;;;;;22.72;78.30;96523.92;610846;232;62991;-71
2022/05/29 00:25:13;;;;;;;;;;;;;;;22.72;78.32;96529.28;610920;232;66215;-72
2022/05/29 00:27:41;;;;;;;;;;;;;;;22.73;78.33;96514.03;610838;232;66217;-72
2022/05/29 00:30:10;;;;;;;;;;;;;;;22.72;78.48;96510.53;610853;232;63027;-72
2022/05/29 00:32:37;;;;;;;;;;;;;;;22.72;78.55;96486.42;610886;232;68791;-72
2022/05/29 00:35:05;;;;;;;;;;;;;;;22.71;78.59;96439.31;610810;232;68644;-72
2022/05/29 00:37:34;;;;;;;;;;;;;;;22.71;78.68;96433.95;610905;232;65378;-72
2022/05/29 00:40:02;;;;;;;;;;;;;;;22.71;78.67;96439.31;610531;232;68753;-71
2022/05/29 00:42:29;;;;;;;;;;;;;;;22.72;78.54;96453.49;610861;232;68749;-72
2022/05/29 00:44:57;;;;;;;;;;;;;;;22.71;78.54;96441.99;610827;232;65110;-72
2022/05/29 00:47:27;;;;;;;;;;;;;;;22.71;78.54;96452.70;610873;232;68633;-72
2022/05/29 00:49:53;;;;;;;;;;;;;;;22.72;78.47;96462.31;610808;231;66301;-71
2022/05/29 00:52:25;;;;;;;;;;;;;;;22.71;78.41;96463.42;610896;232;65496;-71
2022/05/29 00:54:54;;;;;;;;;;;;;;;22.71;78.43;96452.70;610869;232;67425;-71
2022/05/29 00:57:29;;;;;;;;;;;;;;;22.72;78.49;96454.28;610860;232;66167;-70
2022/05/29 00:59:58;;;;;;;;;;;;;;;22.71;78.53;96441.20;610844;230;65194;-70
2022/05/29 01:02:25;;;;;;;;;;;;;;;22.64;78.62;96414.79;610875;232;66475;-70
2022/05/29 01:04:53;;;;;;;;;;;;;;;22.70;78.68;96416.31;610848;232;68880;-70
2022/05/29 01:07:22;;;;;;;;;;;;;;;22.70;78.67;96405.59;610853;232;65361;-70
2022/05/29 01:09:51;;;;;;;;;;;;;;;22.70;78.63;96410.95;610829;231;68625;-70
2022/05/29 01:12:36;;;;;;;;;;;;;;;22.70;78.52;96427.02;610871;232;68686;-70
2022/05/29 01:15:08;;;;;;;;;;;;;;;22.71;78.40;96447.34;610776;232;65415;-70
2022/05/29 01:17:55;;;;;;;;;;;;;;;22.71;78.12;96519.67;610883;232;68457;-70
2022/05/29 01:20:24;;;;;;;;;;;;;;;22.72;77.78;96525.81;610688;232;68568;-70
2022/05/29 01:22:53;;;;;;;;;;;;;;;22.71;77.98;96546.45;610926;230;65115;-71
2022/05/29 01:25:35;;;;;;;;;;;;;;;22.72;77.94;96571.35;610476;232;68273;-70
2022/05/29 01:28:04;;;;;;;;;;;;;;;22.71;78.06;96580.48;601771;232;68519;-70
2022/05/29 01:30:33;;;;;;;;;;;;;;;22.72;78.08;96592.78;610856;232;65359;-71
2022/05/29 01:33:11;;;;;;;;;;;;;;;22.71;78.22;96610.74;610840;232;66677;-70
2022/05/29 01:35:47;;;;;;;;;;;;;;;22.71;78.29;96609.95;610815;232;66476;-70
2022/05/29 01:38:21;;;;;;;;;;;;;;;22.70;78.36;96617.20;610906;232;65697;-71
2022/05/29 01:40:50;;;;;;;;;;;;;;;22.70;78.42;96625.23;610779;232;68733;-70
2022/05/29 01:43:25;;;;;;;;;;;;;;;22.71;78.51;96621.45;610825;232;68561;-70
2022/05/29 01:45:54;;;;;;;;;;;;;;;22.70;78.51;96616.37;610390;232;65188;-70
2022/05/29 01:48:29;;;;;;;;;;;;;;;22.71;78.64;96634.06;610848;232;68651;-70
2022/05/29 01:50:58;;;;;;;;;;;;;;;22.70;78.45;96651.20;610749;232;66429;-71
2022/05/29 01:53:30;;;;;;;;;;;;;;;22.70;78.42;96653.88;610874;232;63086;-71
2022/05/29 01:55:59;;;;;;;;;;;;;;;22.69;78.51;96615.59;610609;232;66470;-72
2022/05/29 01:58:28;;;;;;;;;;;;;;;22.69;78.72;96609.44;610773;232;66449;-73
2022/05/29 02:00:57;;;;;;;;;;;;;;;22.69;78.60;96615.59;610826;231;62981;-73
2022/05/29 02:03:33;;;;;;;;;;;;;;;22.69;78.59;96594.16;610822;231;74428;-73
2022/05/29 02:06:01;;;;;;;;;;;;;;;22.69;78.75;96588.80;610580;232;68609;-73
2022/05/29 02:08:31;;;;;;;;;;;;;;;22.69;78.87;96591.48;610843;232;62920;-73
2022/05/29 02:11:00;;;;;;;;;;;;;;;22.70;78.77;96589.59;610665;232;68683;-73
2022/05/29 02:13:45;;;;;;;;;;;;;;;22.69;78.75;96574.62;611585;232;66067;-73
2022/05/29 02:16:16;;;;;;;;;;;;;;;22.68;78.87;96581.86;611559;232;65433;-73
2022/05/29 02:18:45;;;;;;;;;;;;;;;22.69;78.85;96583.45;611506;232;66441;-73
2022/05/29 02:21:13;;;;;;;;;;;;;;;22.70;78.87;96592.27;611434;232;69047;-73
2022/05/29 02:23:45;;;;;;;;;;;;;;;22.69;78.92;96596.84;611531;231;65126;-73
2022/05/29 02:26:14;;;;;;;;;;;;;;;22.68;78.91;96592.58;611548;232;68788;-73
2022/05/29 02:28:43;;;;;;;;;;;;;;;22.68;78.86;96614.00;611551;232;68523;-73
2022/05/29 02:31:12;;;;;;;;;;;;;;;22.68;78.81;96584.55;611561;232;65406;-73
2022/05/29 02:33:41;;;;;;;;;;;;;;;22.68;78.81;96576.51;611418;232;66437;-73
2022/05/29 02:36:19;;;;;;;;;;;;;;;22.67;78.82;96545.47;611600;232;68558;-73
2022/05/29 02:38:52;;;;;;;;;;;;;;;22.67;78.93;96540.11;611416;232;64995;-73
2022/05/29 02:41:20;;;;;;;;;;;;;;;22.68;78.92;96546.25;611553;232;68479;-72
2022/05/29 02:44:02;;;;;;;;;;;;;;;22.69;78.86;96566.59;611453;232;68622;-72
2022/05/29 02:46:34;;;;;;;;;;;;;;;22.68;78.80;96541.69;611285;232;65604;-72
2022/05/29 02:49:06;;;;;;;;;;;;;;;22.68;78.89;96559.65;611570;232;68917;-73
2022/05/29 02:51:40;;;;;;;;;;;;;;;22.67;78.96;96537.43;611611;232;68626;-72
2022/05/29 02:54:10;;;;;;;;;;;;;;;22.67;79.14;96518.68;611564;232;65323;-73
2022/05/29 02:56:37;;;;;;;;;;;;;;;22.67;79.21;96529.39;610391;232;68643;-73
2022/05/29 02:59:05;;;;;;;;;;;;;;;22.67;79.13;96534.75;611538;232;68477;-73
2022/05/29 03:01:50;;;;;;;;;;;;;;;22.68;79.05;96536.33;611546;232;63109;-73
2022/05/29 03:04:31;;;;;;;;;;;;;;;22.67;78.93;96545.47;611481;232;66514;-72
2022/05/29 03:07:03;;;;;;;;;;;;;;;22.67;78.91;96558.04;611429;232;68405;-72
2022/05/29 03:09:32;;;;;;;;;;;;;;;22.67;79.00;96564.22;611586;232;65137;-71
2022/05/29 03:12:00;;;;;;;;;;;;;;;22.66;78.98;96557.25;609214;232;68607;-72
2022/05/29 03:14:41;;;;;;;;;;;;;;;22.67;78.97;96580.28;608978;233;66515;-71
2022/05/29 03:17:13;;;;;;;;;;;;;;;22.68;78.98;96567.69;608956;233;65092;-72
2022/05/29 03:19:42;;;;;;;;;;;;;;;22.66;79.12;96535.82;608042;233;66474;-72
2022/05/29 03:22:28;;;;;;;;;;;;;;;22.67;79.27;96529.39;608844;233;68574;-72
2022/05/29 03:25:03;;;;;;;;;;;;;;;22.66;79.23;96530.47;609030;233;63251;-72
2022/05/29 03:27:32;;;;;;;;;;;;;;;22.67;79.15;96525.90;608879;233;67357;-73
2022/05/29 03:30:05;;;;;;;;;;;;;;;22.66;79.18;96517.08;608925;232;68342;-73
2022/05/29 03:32:34;;;;;;;;;;;;;;;22.66;79.17;96510.92;608863;233;63935;-73
2022/05/29 03:35:03;;;;;;;;;;;;;;;22.66;79.23;96511.72;609000;233;68629;-73
2022/05/29 03:37:30;;;;;;;;;;;;;;;22.66;79.26;96503.68;609110;232;68867;-73
2022/05/29 03:39:58;;;;;;;;;;;;;;;22.66;79.29;96509.04;609638;232;65410;-73
2022/05/29 03:42:25;;;;;;;;;;;;;;;22.66;79.22;96494.86;609729;232;68713;-73
2022/05/29 03:44:54;;;;;;;;;;;;;;;22.65;79.37;96469.96;610216;232;68532;-73
2022/05/29 03:47:22;;;;;;;;;;;;;;;22.66;79.53;96422.55;610217;232;62976;-73
2022/05/29 03:49:49;;;;;;;;;;;;;;;22.65;79.90;96404.89;610230;232;66283;-73
2022/05/29 03:52:17;;;;;;;;;;;;;;;22.65;79.61;96424.44;610267;232;66506;-72
2022/05/29 03:54:44;;;;;;;;;;;;;;;22.65;79.45;96427.11;610248;232;63170;-73
2022/05/29 03:57:12;;;;;;;;;;;;;;;22.66;79.34;96433.25;610228;232;66116;-73
2022/05/29 03:59:39;;;;;;;;;;;;;;;22.65;79.23;96435.14;610226;232;66408;-73
2022/05/29 04:02:07;;;;;;;;;;;;;;;22.66;79.25;96433.25;610180;232;62971;-72
2022/05/29 04:04:34;;;;;;;;;;;;;;;22.65;79.09;96432.47;610260;232;69115;-73
2022/05/29 04:07:02;;;;;;;;;;;;;;;22.66;78.95;96438.61;610233;232;66448;-73
2022/05/29 04:12:15;;;;;;;;;;;;;;;22.66;78.84;96442.08;610101;232;66549;-74
2022/05/29 04:14:44;;;;;;;;;;;;;;;22.65;78.97;96435.14;611522;232;68545;-74
2022/05/29 04:17:12;;;;;;;;;;;;;;;22.66;79.01;96438.61;611559;232;62972;-74
2022/05/29 04:19:40;;;;;;;;;;;;;;;22.65;79.14;96431.67;611679;232;66245;-73
2022/05/29 04:22:08;;;;;;;;;;;;;;;22.66;79.13;96430.58;611556;232;66292;-71
2022/05/29 04:24:36;;;;;;;;;;;;;;;22.65;79.17;96431.67;611600;232;63226;-71
2022/05/29 04:27:03;;;;;;;;;;;;;;;22.65;79.22;96412.93;611573;232;66122;-71
2022/05/29 04:29:32;;;;;;;;;;;;;;;22.64;79.30;96404.08;611580;232;68313;-71
2022/05/29 04:34:45;;;;;;;;;;;;;;;22.64;79.23;96406.75;611626;232;68449;-71
2022/05/29 04:37:12;;;;;;;;;;;;;;;22.64;79.25;96397.94;611602;232;68289;-72
2022/05/29 04:39:40;;;;;;;;;;;;;;;22.64;79.23;96406.75;611595;232;65468;-72
2022/05/29 04:42:07;;;;;;;;;;;;;;;22.64;79.13;96409.44;611556;232;68406;-72
2022/05/29 04:44:35;;;;;;;;;;;;;;;22.64;79.06;96404.08;611623;232;68342;-71
2022/05/29 04:47:03;;;;;;;;;;;;;;;22.63;78.98;96397.14;611552;232;62979;-72
2022/05/29 04:49:31;;;;;;;;;;;;;;;22.65;79.08;96394.19;611553;232;66525;-72
2022/05/29 04:51:59;;;;;;;;;;;;;;;22.64;79.14;96398.72;611531;232;68826;-72
2022/05/29 04:54:26;;;;;;;;;;;;;;;22.63;79.11;96389.11;611568;232;65423;-72
2022/05/29 04:56:54;;;;;;;;;;;;;;;22.64;79.18;96388.01;611565;232;68684;-72
2022/05/29 04:59:21;;;;;;;;;;;;;;;22.63;79.19;96386.43;611619;232;68580;-71
2022/05/29 05:01:49;;;;;;;;;;;;;;;22.65;79.13;96384.26;611526;232;65359;-71
2022/05/29 05:04:16;;;;;;;;;;;;;;;22.64;79.06;96382.66;611553;232;68633;-71
2022/05/29 05:06:44;;;;;;;;;;;;;;;22.64;78.97;96382.66;611542;232;68576;-71
2022/05/29 05:09:11;;;;;;;;;;;;;;;22.63;78.93;96381.08;611595;232;65002;-72
2022/05/29 05:11:39;;;;;;;;;;;;;;;22.64;78.99;96385.33;609476;231;68489;-72
2022/05/29 05:14:06;;;;;;;;;;;;;;;22.65;79.09;96394.97;608453;233;68625;-72
2022/05/29 05:16:34;;;;;;;;;;;;;;;22.64;79.10;96392.58;608400;233;65378;-72
2022/05/29 05:19:01;;;;;;;;;;;;;;;22.64;79.09;96388.01;609562;232;68942;-71
2022/05/29 05:21:29;;;;;;;;;;;;;;;22.64;79.19;96385.33;610845;232;68549;-72
2022/05/29 05:23:56;;;;;;;;;;;;;;;22.64;79.19;96379.97;610932;232;65130;-71
2022/05/29 05:26:24;;;;;;;;;;;;;;;22.62;79.35;96384.86;610871;230;68617;-72
2022/05/29 05:28:51;;;;;;;;;;;;;;;22.63;79.35;96394.47;610837;232;68404;-71
2022/05/29 05:31:19;;;;;;;;;;;;;;;22.64;79.36;96397.94;610861;232;65454;-71
2022/05/29 05:33:46;;;;;;;;;;;;;;;22.63;79.29;96399.83;610880;232;68843;-70
2022/05/29 05:36:15;;;;;;;;;;;;;;;22.63;79.25;96397.14;610854;232;66465;-70
2022/05/29 05:38:42;;;;;;;;;;;;;;;22.63;79.26;96397.14;610832;232;65209;-70
2022/05/29 05:41:10;;;;;;;;;;;;;;;22.63;79.29;96391.00;610757;232;68940;-70
2022/05/29 05:43:39;;;;;;;;;;;;;;;22.63;79.29;96386.43;610860;232;68669;-70
2022/05/29 05:46:07;;;;;;;;;;;;;;;22.63;79.32;96383.75;610827;232;63166;-70
2022/05/29 05:48:36;;;;;;;;;;;;;;;22.63;79.30;96378.39;610851;232;66447;-70
2022/05/29 05:51:04;;;;;;;;;;;;;;;22.63;79.23;96380.28;610888;232;66351;-71
2022/05/29 05:53:32;;;;;;;;;;;;;;;22.63;79.30;96375.72;610856;232;63077;-71
2022/05/29 05:56:01;;;;;;;;;;;;;;;22.63;79.40;96375.72;610743;232;66511;-70
2022/05/29 05:58:29;;;;;;;;;;;;;;;22.63;79.31;96382.97;610817;232;66250;-70
2022/05/29 06:00:56;;;;;;;;;;;;;;;22.63;79.25;96399.83;610887;232;63100;-70
2022/05/29 06:03:24;;;;;;;;;;;;;;;22.62;79.17;96400.92;610861;232;67437;-70
2022/05/29 06:05:51;;;;;;;;;;;;;;;22.62;79.15;96406.28;610830;232;66866;-70
2022/05/29 06:08:19;;;;;;;;;;;;;;;22.63;79.15;96402.50;610778;232;63029;-70
2022/05/29 06:10:46;;;;;;;;;;;;;;;22.61;79.07;96407.35;610980;232;67427;-70
2022/05/29 06:13:14;;;;;;;;;;;;;;;22.61;77.97;96412.70;611574;232;66479;-70
2022/05/29 06:15:44;;;;;;;;;;;;;;;22.63;78.69;96404.39;611536;232;63113;-70
2022/05/29 06:18:11;;;;;;;;;;;;;;;22.63;79.19;96405.17;611502;231;68750;-70
2022/05/29 06:20:39;;;;;;;;;;;;;;;22.64;79.14;96409.44;611478;232;68548;-72
2022/05/29 06:23:06;;;;;;;;;;;;;;;22.64;79.38;96395.25;611529;232;65115;-72
2022/05/29 06:25:33;;;;;;;;;;;;;;;22.65;79.46;96394.19;611516;232;68376;-72
2022/05/29 06:28:01;;;;;;;;;;;;;;;22.66;79.61;96396.55;611527;232;68577;-72
2022/05/29 06:30:29;;;;;;;;;;;;;;;22.65;79.55;96400.33;611442;232;62990;-72
2022/05/29 06:32:58;;;;;;;;;;;;;;;22.66;79.55;96385.05;611555;232;68872;-72
2022/05/29 06:35:26;;;;;;;;;;;;;;;22.65;79.56;96389.61;611474;232;68421;-72
2022/05/29 06:37:54;;;;;;;;;;;;;;;22.66;79.55;96393.87;611489;232;64777;-72
2022/05/29 06:40:22;;;;;;;;;;;;;;;22.66;79.54;96393.08;611579;232;69566;-72
2022/05/29 06:42:50;;;;;;;;;;;;;;;22.66;79.53;96393.08;611543;232;66499;-72
2022/05/29 06:45:17;;;;;;;;;;;;;;;22.67;79.50;96400.02;611511;232;63018;-70
2022/05/29 06:47:45;;;;;;;;;;;;;;;22.68;79.44;96404.30;611485;232;66449;-70
2022/05/29 06:50:12;;;;;;;;;;;;;;;22.67;79.40;96397.34;611484;232;66463;-70
2022/05/29 06:52:40;;;;;;;;;;;;;;;22.68;79.44;96409.66;611497;230;63135;-70
2022/05/29 06:55:08;;;;;;;;;;;;;;;22.68;79.40;96399.73;611539;232;66407;-69
2022/05/29 06:57:44;;;;;;;;;;;;;;;22.68;79.44;96398.95;611560;230;68751;-70
2022/05/29 07:08:33;;;;;;;;;;;;;;;22.68;79.41;96380.98;611479;232;62854;-70
2022/05/29 07:11:02;;;;;;;;;;;;;;;22.68;79.34;96385.55;610751;231;66711;-70
2022/05/29 07:13:31;;;;;;;;;;;;;;;22.68;79.29;96389.02;608367;233;66229;-70
2022/05/29 07:15:59;;;;;;;;;;;;;;;22.69;79.24;96384.45;608415;233;65274;-70
2022/05/29 07:18:26;;;;;;;;;;;;;;;22.69;79.23;96382.56;608382;233;68619;-70
2022/05/29 07:20:54;;;;;;;;;;;;;;;22.68;79.09;96386.34;608416;233;66855;-70
2022/05/29 07:23:21;;;;;;;;;;;;;;;22.70;79.03;96386.03;608741;232;62970;-70
2022/05/29 07:25:49;;;;;;;;;;;;;;;22.70;78.94;96394.06;610927;232;66421;-70
2022/05/29 07:28:16;;;;;;;;;;;;;;;22.70;78.95;96392.20;610836;232;66426;-70
2022/05/29 07:30:44;;;;;;;;;;;;;;;22.70;78.91;96392.20;610859;232;62976;-70
2022/05/29 07:33:11;;;;;;;;;;;;;;;22.71;78.87;96398.34;610856;232;66635;-70
2022/05/29 07:35:40;;;;;;;;;;;;;;;22.71;78.79;96390.31;610827;232;66459;-70
2022/05/29 07:38:08;;;;;;;;;;;;;;;22.70;78.79;96402.91;610903;231;65316;-70
2022/05/29 07:40:35;;;;;;;;;;;;;;;22.71;78.70;96409.85;610852;232;68331;-70
2022/05/29 07:45:53;;;;;;;;;;;;;;;22.71;78.67;96401.81;610829;232;65457;-70
2022/05/29 07:48:23;;;;;;;;;;;;;;;22.71;78.71;96404.49;610794;232;68913;-70
2022/05/29 07:50:51;;;;;;;;;;;;;;;22.71;78.74;96399.13;610858;232;66743;-70
2022/05/29 07:53:18;;;;;;;;;;;;;;;22.71;78.75;96415.20;610905;232;63125;-70
2022/05/29 07:55:46;;;;;;;;;;;;;;;22.72;78.68;96410.64;610904;232;66451;-70
2022/05/29 07:58:14;;;;;;;;;;;;;;;22.72;78.67;96411.42;610807;232;66467;-70
2022/05/29 08:00:42;;;;;;;;;;;;;;;22.71;78.67;96415.20;610868;232;65358;-70
2022/05/29 08:03:10;;;;;;;;;;;;;;;22.72;78.58;96411.42;610893;232;68743;-70
2022/05/29 08:05:38;;;;;;;;;;;;;;;22.72;78.65;96400.71;610965;232;68384;-70
2022/05/29 08:08:08;;;;;;;;;;;;;;;22.72;78.64;96422.14;610868;232;64189;-70
2022/05/29 08:10:37;;;;;;;;;;;;;;;22.73;78.56;96421.07;610524;232;68859;-70
2022/05/29 08:13:05;;;;;;;;;;;;;;;22.72;78.57;96403.39;610296;232;66481;-70
2022/05/29 08:15:32;;;;;;;;;;;;;;;22.72;78.64;96403.39;610288;232;62966;-70
2022/05/29 08:18:00;;;;;;;;;;;;;;;22.72;78.61;96406.07;610386;232;68597;-70
2022/05/29 08:20:29;;;;;;;;;;;;;;;22.73;78.55;96406.89;611101;232;68510;-70
2022/05/29 08:22:56;;;;;;;;;;;;;;;22.73;78.54;96406.89;611583;232;65108;-70
2022/05/29 08:30:55;;;;;;;;;;;;;;;22.73;78.46;96396.96;611579;232;65510;-72
2022/05/29 08:33:24;;;;;;;;;;;;;;;22.74;78.52;96405.78;611635;232;68504;-72
2022/05/29 08:35:56;;;;;;;;;;;;;;;22.72;78.40;96406.07;611543;232;68506;-72
2022/05/29 08:38:24;;;;;;;;;;;;;;;22.73;78.39;96401.53;611558;232;65129;-72
2022/05/29 08:40:55;;;;;;;;;;;;;;;22.73;78.46;96405.00;611591;232;68373;-72
2022/05/29 08:43:27;;;;;;;;;;;;;;;22.73;78.44;96412.25;611590;232;66265;-71
2022/05/29 08:45:55;;;;;;;;;;;;;;;22.74;78.45;96405.78;611569;232;65232;-71
2022/05/29 08:48:24;;;;;;;;;;;;;;;22.73;78.45;96398.85;611601;232;68481;-71
2022/05/29 08:50:53;;;;;;;;;;;;;;;22.73;78.48;96396.96;611520;232;66468;-71
2022/05/29 08:53:25;;;;;;;;;;;;;;;22.74;78.46;96392.39;611575;232;65136;-71
2022/05/29 08:55:54;;;;;;;;;;;;;;;22.73;78.42;96402.32;611457;232;66090;-71
2022/05/29 08:58:23;;;;;;;;;;;;;;;22.73;78.37;96386.25;611556;232;66134;-71
2022/05/29 09:01:10;;;;;;;;;;;;;;;22.73;78.50;96380.89;611283;232;63036;-71
2022/05/29 09:03:52;;;;;;;;;;;;;;;22.74;78.47;96387.83;611617;232;68938;-71
2022/05/29 09:06:30;;;;;;;;;;;;;;;22.73;78.41;96380.89;611565;232;66381;-71
2022/05/29 09:09:15;;;;;;;;;;;;;;;22.74;78.43;96384.36;611503;232;63080;-71
2022/05/29 09:11:44;;;;;;;;;;;;;;;22.73;78.41;96372.86;609773;232;68667;-70
2022/05/29 09:14:16;;;;;;;;;;;;;;;22.72;78.43;96373.92;608405;232;68760;-70
2022/05/29 09:16:45;;;;;;;;;;;;;;;22.73;78.44;96369.39;610172;232;62968;-71
2022/05/29 09:19:17;;;;;;;;;;;;;;;22.73;78.47;96367.50;610947;232;66609;-70
2022/05/29 09:21:46;;;;;;;;;;;;;;;22.74;78.47;96371.75;610329;232;68620;-71
2022/05/29 09:24:21;;;;;;;;;;;;;;;22.73;78.45;96364.81;610738;232;65106;-70
2022/05/29 09:26:50;;;;;;;;;;;;;;;22.74;78.39;96368.28;610639;231;68675;-72
2022/05/29 09:29:17;;;;;;;;;;;;;;;22.74;78.40;96362.92;610868;232;68565;-72
2022/05/29 09:31:45;;;;;;;;;;;;;;;22.74;78.37;96357.57;610859;232;65464;-70
2022/05/29 09:34:12;;;;;;;;;;;;;;;22.74;78.44;96357.57;610927;232;66371;-70
2022/05/29 09:36:52;;;;;;;;;;;;;;;22.74;78.49;96344.18;610835;232;66387;-70
2022/05/29 09:39:27;;;;;;;;;;;;;;;22.74;78.42;96344.97;610874;232;65382;-71
2022/05/29 09:41:59;;;;;;;;;;;;;;;22.74;78.37;96349.53;610497;232;68700;-71
2022/05/29 09:44:27;;;;;;;;;;;;;;;22.74;78.37;96344.97;610763;232;66115;-71
2022/05/29 09:49:40;;;;;;;;;;;;;;;22.74;78.45;96334.25;610808;232;66007;-71
2022/05/29 09:49:53;;;;;;;;;;;;;;;22.74;78.40;96322.75;610083;232;68570;-70
2022/05/29 09:52:17;;;;;;;;;;;;;;;22.74;78.31;96322.75;610238;232;66567;-70
2022/05/29 09:54:52;;;;;;;;;;;;;;;22.75;78.36;96330.50;610788;232;65106;-70
2022/05/29 09:57:24;;;;;;;;;;;;;;;22.74;78.34;96323.53;610816;232;68796;-70
2022/05/29 09:59:53;;;;;;;;;;;;;;;22.74;78.37;96320.07;610905;232;66414;-70
2022/05/29 10:02:25;;;;;;;;;;;;;;;22.74;78.37;96310.14;610892;232;63254;-70
2022/05/29 10:04:54;;;;;;;;;;;;;;;22.74;78.31;96312.83;610567;231;69018;-70
2022/05/29 10:07:23;;;;;;;;;;;;;;;22.75;78.33;96308.25;610874;232;68563;-70
2022/05/29 10:09:58;;;;;;;;;;;;;;;22.73;78.28;96305.89;610170;232;65416;-70
2022/05/29 10:12:27;;;;;;;;;;;;;;;22.75;78.33;96297.54;610851;232;68343;-70
2022/05/29 10:14:54;;;;;;;;;;;;;;;22.75;78.30;96294.86;610628;232;66611;-70
2022/05/29 10:17:29;;;;;;;;;;;;;;;22.74;78.35;96296.75;610841;232;65111;-70
2022/05/29 10:19:57;;;;;;;;;;;;;;;22.75;78.28;96278.79;610904;232;66755;-70
2022/05/29 10:22:30;;;;;;;;;;;;;;;22.75;78.31;96282.28;610850;232;68325;-70
2022/05/29 10:25:00;;;;;;;;;;;;;;;22.76;78.29;96299.14;610876;232;65401;-70
2022/05/29 10:27:32;;;;;;;;;;;;;;;22.75;78.27;96282.28;610845;232;68910;-70
2022/05/29 10:30:01;;;;;;;;;;;;;;;22.76;78.28;96277.72;610632;232;68550;-70
2022/05/29 10:32:31;;;;;;;;;;;;;;;22.75;78.27;96279.61;610808;232;65155;-70
2022/05/29 10:35:06;;;;;;;;;;;;;;;22.75;78.16;96279.61;610915;232;66465;-70
2022/05/29 10:37:38;;;;;;;;;;;;;;;22.76;78.26;96283.07;610443;232;66444;-70
2022/05/29 10:40:14;;;;;;;;;;;;;;;22.75;78.19;96270.75;610874;232;65087;-70
2022/05/29 10:42:46;;;;;;;;;;;;;;;22.75;78.22;96268.89;610852;232;66345;-70
2022/05/29 10:45:18;;;;;;;;;;;;;;;22.76;78.19;96262.43;610711;232;66609;-70
2022/05/29 10:48:06;;;;;;;;;;;;;;;22.76;78.19;96267.78;610615;232;65374;-70
2022/05/29 10:50:35;;;;;;;;;;;;;;;22.76;78.26;96250.93;610937;232;66488;-71
2022/05/29 10:53:13;;;;;;;;;;;;;;;22.75;78.24;96255.50;610837;232;68557;-71
2022/05/29 10:55:54;;;;;;;;;;;;;;;22.76;78.26;96259.75;610626;232;65241;-71
2022/05/29 10:58:25;;;;;;;;;;;;;;;22.75;78.31;96254.68;610710;232;48320;-71
2022/05/29 11:00:54;;;;;;;;;;;;;;;22.75;78.27;96250.14;610903;232;66154;-71
2022/05/29 11:03:24;;;;;;;;;;;;;;;22.76;78.27;96254.39;610723;232;65224;-71
2022/05/29 11:06:06;;;;;;;;;;;;;;;22.76;78.27;96249.03;610882;232;68650;-71
2022/05/29 11:08:50;;;;;;;;;;;;;;;22.75;78.27;96239.42;610844;232;68692;-71
2022/05/29 11:11:28;;;;;;;;;;;;;;;22.75;78.30;96239.42;610814;230;63001;-71
2022/05/29 11:14:09;;;;;;;;;;;;;;;22.75;78.35;96236.75;610859;232;66459;-71
2022/05/29 11:16:45;;;;;;;;;;;;;;;22.75;78.30;96242.11;610693;232;66419;-71
2022/05/29 11:19:30;;;;;;;;;;;;;;;22.76;78.29;96240.22;610877;232;65575;-71
2022/05/29 11:22:06;;;;;;;;;;;;;;;22.75;78.35;96228.71;610847;232;66510;-71
2022/05/29 11:24:34;;;;;;;;;;;;;;;22.75;78.37;96220.67;610876;232;66556;-71
2022/05/29 11:27:13;;;;;;;;;;;;;;;22.75;78.28;96220.67;610543;232;65183;-71
2022/05/29 11:29:45;;;;;;;;;;;;;;;22.76;78.32;96234.86;610917;232;68348;-71
2022/05/29 11:32:23;;;;;;;;;;;;;;;22.76;78.34;96214.22;610834;232;68355;-71
2022/05/29 11:34:52;;;;;;;;;;;;;;;22.76;78.33;96218.78;610836;232;66352;-71
2022/05/29 11:37:25;;;;;;;;;;;;;;;22.75;78.30;96220.67;610388;230;66685;-71
2022/05/29 11:39:59;;;;;;;;;;;;;;;22.77;78.28;96217.68;610855;230;68564;-71
2022/05/29 11:42:27;;;;;;;;;;;;;;;22.75;78.24;96207.28;610911;232;65097;-71
2022/05/29 11:45:13;;;;;;;;;;;;;;;22.76;78.30;96200.03;610800;232;48156;-71
2022/05/29 11:53:18;;;;;;;;;;;;;;;22.75;78.29;96188.53;610871;232;68663;-72
2022/05/29 11:55:47;;;;;;;;;;;;;;;22.76;78.35;96179.39;610767;232;68595;-73
2022/05/29 11:58:24;;;;;;;;;;;;;;;22.75;78.35;96177.00;610904;231;46860;-71
2022/05/29 12:00:53;;;;;;;;;;;;;;;22.76;78.34;96182.08;610757;232;68644;-71
2022/05/29 12:03:31;;;;;;;;;;;;;;;22.76;78.28;96175.93;610866;232;69027;-71
2022/05/29 12:06:09;;;;;;;;;;;;;;;22.76;78.37;96175.93;610742;232;65379;-71
2022/05/29 12:08:55;;;;;;;;;;;;;;;22.76;78.29;96166.00;610654;232;68690;-70
2022/05/29 12:11:36;;;;;;;;;;;;;;;22.76;78.34;96166.00;610651;231;68595;-70
2022/05/29 12:14:11;;;;;;;;;;;;;;;22.76;78.34;96160.64;611430;232;65298;-70
2022/05/29 12:16:39;;;;;;;;;;;;;;;22.76;78.39;96152.61;611493;232;66637;-70
2022/05/29 12:19:19;;;;;;;;;;;;;;;22.75;78.38;96151.03;611434;232;66216;-70
2022/05/29 12:21:48;;;;;;;;;;;;;;;22.75;78.38;96148.36;611237;232;65200;-70
2022/05/29 12:24:19;;;;;;;;;;;;;;;22.76;78.41;96133.07;611508;231;49552;-70
2022/05/29 12:26:57;;;;;;;;;;;;;;;22.76;78.44;96122.36;611270;232;66781;-70
2022/05/29 12:29:26;;;;;;;;;;;;;;;22.76;78.46;96115.11;611454;232;62967;-70
2022/05/29 12:31:55;;;;;;;;;;;;;;;22.75;78.36;96118.89;611414;232;66527;-70
2022/05/29 12:34:27;;;;;;;;;;;;;;;22.76;78.31;96117.79;611534;232;66485;-70
2022/05/29 12:37:12;;;;;;;;;;;;;;;22.76;78.37;96109.75;611517;232;62958;-70
2022/05/29 12:39:58;;;;;;;;;;;;;;;22.77;78.29;96102.50;611530;232;68697;-70
2022/05/29 12:42:27;;;;;;;;;;;;;;;22.76;78.32;96092.89;611562;232;68332;-70
2022/05/29 12:45:02;;;;;;;;;;;;;;;22.76;78.36;96087.54;611612;232;65483;-71
2022/05/29 12:47:50;;;;;;;;;;;;;;;22.76;78.39;96080.29;611581;232;68167;-72
2022/05/29 12:50:21;;;;;;;;;;;;;;;22.76;78.46;96082.97;611144;232;66271;-72
2022/05/29 12:53:07;;;;;;;;;;;;;;;22.77;78.44;96078.39;611477;232;65220;-72
2022/05/29 12:55:45;;;;;;;;;;;;;;;22.77;78.46;96071.14;611619;232;68664;-72
2022/05/29 12:58:17;;;;;;;;;;;;;;;22.76;78.44;96058.86;611583;232;68305;-72
2022/05/29 13:00:53;;;;;;;;;;;;;;;22.75;78.44;96046.58;611561;232;63036;-73
2022/05/29 13:03:40;;;;;;;;;;;;;;;22.76;78.50;96037.44;611567;232;66333;-73
2022/05/29 13:06:26;;;;;;;;;;;;;;;22.77;78.45;96038.22;611584;232;68425;-73
2022/05/29 13:08:55;;;;;;;;;;;;;;;22.76;78.40;96021.36;611555;231;65364;-72
2022/05/29 13:11:24;;;;;;;;;;;;;;;22.77;78.39;96016.79;611427;230;68862;-72
2022/05/29 13:13:53;;;;;;;;;;;;;;;22.76;78.43;96009.86;608786;232;68412;-72
2022/05/29 13:16:22;;;;;;;;;;;;;;;22.76;78.48;96007.97;609815;232;65354;-72
2022/05/29 13:19:21;;;;;;;;;;;;;;;22.75;78.38;96000.23;610859;232;66385;-72
2022/05/29 13:21:55;;;;;;;;;;;;;;;22.76;78.44;95999.94;610482;232;68559;-72
2022/05/29 13:24:24;;;;;;;;;;;;;;;22.77;78.42;95985.44;610763;232;63080;-72
2022/05/29 13:27:17;;;;;;;;;;;;;;;22.76;78.46;95989.22;610802;232;66502;-72
2022/05/29 13:29:46;;;;;;;;;;;;;;;22.77;78.46;95979.30;610863;232;68545;-72
2022/05/29 13:32:16;;;;;;;;;;;;;;;22.76;78.37;95978.50;610896;232;63213;-72
2022/05/29 13:34:47;;;;;;;;;;;;;;;22.77;78.43;95976.61;610874;232;66497;-73